sensor_id;sensor_type;location;lat;lon;timestamp;P1;durP1;ratioP1;P2;durP2;ratioP2
21000;SDS011;10658;50.920;12.238;2023-09-19T00:02:31;3.05;;;1.95;;
21000;SDS011;10658;50.920;12.238;2023-09-19T00:06:33;3.35;;;2.63;;
21000;SDS011;10658;50.920;12.238;2023-09-19T00:10:33;3.97;;;1.70;;
21000;SDS011;10658;50.920;12.238;2023-09-19T00:14:38;4.40;;;1.50;;
21000;SDS011;10658;50.920;12.238;2023-09-19T00:18:39;2.10;;;1.63;;
21000;SDS011;10658;50.920;12.238;2023-09-19T00:22:40;2.38;;;1.80;;
21000;SDS011;10658;50.920;12.238;2023-09-19T00:26:42;2.22;;;1.50;;
21000;SDS011;10658;50.920;12.238;2023-09-19T00:30:44;4.78;;;1.52;;
21000;SDS011;10658;50.920;12.238;2023-09-19T00:34:45;1.95;;;1.30;;
21000;SDS011;10658;50.920;12.238;2023-09-19T00:38:45;2.97;;;1.40;;
21000;SDS011;10658;50.920;12.238;2023-09-19T00:42:47;2.03;;;1.38;;
21000;SDS011;10658;50.920;12.238;2023-09-19T00:46:49;1.60;;;1.30;;
21000;SDS011;10658;50.920;12.238;2023-09-19T00:50:50;1.40;;;1.30;;
21000;SDS011;10658;50.920;12.238;2023-09-19T00:54:51;2.08;;;1.30;;
21000;SDS011;10658;50.920;12.238;2023-09-19T00:58:52;1.83;;;1.42;;
21000;SDS011;10658;50.920;12.238;2023-09-19T01:02:53;3.53;;;1.35;;
21000;SDS011;10658;50.920;12.238;2023-09-19T01:06:54;2.47;;;1.40;;
21000;SDS011;10658;50.920;12.238;2023-09-19T01:10:57;2.33;;;1.27;;
21000;SDS011;10658;50.920;12.238;2023-09-19T01:15:06;2.50;;;1.10;;
21000;SDS011;10658;50.920;12.238;2023-09-19T01:19:33;1.60;;;1.27;;
21000;SDS011;10658;50.920;12.238;2023-09-19T01:28:28;2.72;;;1.30;;
21000;SDS011;10658;50.920;12.238;2023-09-19T01:32:33;2.10;;;1.35;;
21000;SDS011;10658;50.920;12.238;2023-09-19T01:36:35;2.83;;;1.13;;
21000;SDS011;10658;50.920;12.238;2023-09-19T01:40:40;3.10;;;1.40;;
21000;SDS011;10658;50.920;12.238;2023-09-19T01:48:48;3.33;;;1.20;;
21000;SDS011;10658;50.920;12.238;2023-09-19T01:52:57;2.35;;;1.20;;
21000;SDS011;10658;50.920;12.238;2023-09-19T01:57:09;1.40;;;1.13;;
21000;SDS011;10658;50.920;12.238;2023-09-19T02:01:22;2.55;;;1.10;;
21000;SDS011;10658;50.920;12.238;2023-09-19T02:05:24;3.42;;;1.50;;
21000;SDS011;10658;50.920;12.238;2023-09-19T02:09:27;3.50;;;1.58;;
21000;SDS011;10658;50.920;12.238;2023-09-19T02:13:28;1.70;;;1.45;;
21000;SDS011;10658;50.920;12.238;2023-09-19T02:17:31;1.48;;;1.38;;
21000;SDS011;10658;50.920;12.238;2023-09-19T02:21:32;1.40;;;1.20;;
21000;SDS011;10658;50.920;12.238;2023-09-19T02:25:33;2.25;;;1.20;;
21000;SDS011;10658;50.920;12.238;2023-09-19T02:29:35;1.90;;;1.35;;
21000;SDS011;10658;50.920;12.238;2023-09-19T02:33:36;3.95;;;1.25;;
21000;SDS011;10658;50.920;12.238;2023-09-19T02:37:37;3.47;;;1.25;;
21000;SDS011;10658;50.920;12.238;2023-09-19T02:41:38;2.35;;;1.17;;
21000;SDS011;10658;50.920;12.238;2023-09-19T02:45:39;4.07;;;1.30;;
21000;SDS011;10658;50.920;12.238;2023-09-19T02:49:40;2.08;;;1.30;;
21000;SDS011;10658;50.920;12.238;2023-09-19T02:53:43;2.95;;;1.33;;
21000;SDS011;10658;50.920;12.238;2023-09-19T02:57:48;2.50;;;1.42;;
21000;SDS011;10658;50.920;12.238;2023-09-19T03:01:54;3.15;;;1.20;;
21000;SDS011;10658;50.920;12.238;2023-09-19T03:05:54;2.60;;;1.40;;
21000;SDS011;10658;50.920;12.238;2023-09-19T03:09:55;4.32;;;1.13;;
21000;SDS011;10658;50.920;12.238;2023-09-19T03:13:56;1.95;;;1.73;;
21000;SDS011;10658;50.920;12.238;2023-09-19T03:17:58;2.97;;;1.33;;
21000;SDS011;10658;50.920;12.238;2023-09-19T03:22:00;4.70;;;1.42;;
21000;SDS011;10658;50.920;12.238;2023-09-19T03:26:01;2.40;;;1.20;;
21000;SDS011;10658;50.920;12.238;2023-09-19T03:30:03;1.92;;;1.10;;
21000;SDS011;10658;50.920;12.238;2023-09-19T03:34:09;2.08;;;1.52;;
21000;SDS011;10658;50.920;12.238;2023-09-19T03:38:10;2.70;;;1.40;;
21000;SDS011;10658;50.920;12.238;2023-09-19T03:42:11;1.83;;;1.20;;
21000;SDS011;10658;50.920;12.238;2023-09-19T03:46:12;2.90;;;1.58;;
21000;SDS011;10658;50.920;12.238;2023-09-19T03:50:15;4.40;;;1.25;;
21000;SDS011;10658;50.920;12.238;2023-09-19T03:54:17;2.25;;;1.40;;
21000;SDS011;10658;50.920;12.238;2023-09-19T03:58:19;1.15;;;1.00;;
21000;SDS011;10658;50.920;12.238;2023-09-19T04:02:20;1.63;;;1.40;;
21000;SDS011;10658;50.920;12.238;2023-09-19T04:06:25;3.97;;;1.60;;
21000;SDS011;10658;50.920;12.238;2023-09-19T04:10:27;1.70;;;1.50;;
21000;SDS011;10658;50.920;12.238;2023-09-19T04:14:28;2.80;;;1.85;;
21000;SDS011;10658;50.920;12.238;2023-09-19T04:18:29;2.70;;;1.45;;
21000;SDS011;10658;50.920;12.238;2023-09-19T04:22:37;5.85;;;1.63;;
21000;SDS011;10658;50.920;12.238;2023-09-19T04:26:39;1.20;;;1.13;;
21000;SDS011;10658;50.920;12.238;2023-09-19T04:30:40;1.10;;;1.02;;
21000;SDS011;10658;50.920;12.238;2023-09-19T04:34:41;1.50;;;1.10;;
21000;SDS011;10658;50.920;12.238;2023-09-19T04:38:43;2.17;;;1.35;;
21000;SDS011;10658;50.920;12.238;2023-09-19T04:42:44;2.25;;;1.30;;
21000;SDS011;10658;50.920;12.238;2023-09-19T04:46:46;2.38;;;1.30;;
21000;SDS011;10658;50.920;12.238;2023-09-19T04:50:48;2.08;;;1.00;;
21000;SDS011;10658;50.920;12.238;2023-09-19T04:54:49;3.85;;;1.50;;
21000;SDS011;10658;50.920;12.238;2023-09-19T04:58:50;2.00;;;1.20;;
21000;SDS011;10658;50.920;12.238;2023-09-19T05:02:51;1.30;;;1.20;;
21000;SDS011;10658;50.920;12.238;2023-09-19T05:06:55;1.63;;;1.20;;
21000;SDS011;10658;50.920;12.238;2023-09-19T05:10:56;2.75;;;1.70;;
21000;SDS011;10658;50.920;12.238;2023-09-19T05:14:57;2.20;;;1.23;;
21000;SDS011;10658;50.920;12.238;2023-09-19T05:18:58;1.40;;;1.30;;
21000;SDS011;10658;50.920;12.238;2023-09-19T05:23:01;2.70;;;1.20;;
21000;SDS011;10658;50.920;12.238;2023-09-19T05:27:03;1.77;;;1.30;;
21000;SDS011;10658;50.920;12.238;2023-09-19T05:31:07;3.08;;;1.60;;
21000;SDS011;10658;50.920;12.238;2023-09-19T05:35:08;3.53;;;1.25;;
21000;SDS011;10658;50.920;12.238;2023-09-19T05:39:09;1.60;;;1.42;;
21000;SDS011;10658;50.920;12.238;2023-09-19T05:43:11;3.60;;;1.52;;
21000;SDS011;10658;50.920;12.238;2023-09-19T05:47:14;1.50;;;1.40;;
21000;SDS011;10658;50.920;12.238;2023-09-19T05:51:16;4.05;;;1.20;;
21000;SDS011;10658;50.920;12.238;2023-09-19T05:55:18;1.90;;;1.27;;
21000;SDS011;10658;50.920;12.238;2023-09-19T05:59:20;2.97;;;1.42;;
21000;SDS011;10658;50.920;12.238;2023-09-19T06:03:22;4.80;;;1.23;;
21000;SDS011;10658;50.920;12.238;2023-09-19T06:07:24;2.00;;;1.20;;
21000;SDS011;10658;50.920;12.238;2023-09-19T06:11:26;1.13;;;0.88;;
21000;SDS011;10658;50.920;12.238;2023-09-19T06:15:28;1.70;;;1.60;;
21000;SDS011;10658;50.920;12.238;2023-09-19T06:19:30;1.58;;;1.48;;
21000;SDS011;10658;50.920;12.238;2023-09-19T06:23:31;1.48;;;1.00;;
21000;SDS011;10658;50.920;12.238;2023-09-19T06:27:33;2.38;;;1.10;;
21000;SDS011;10658;50.920;12.238;2023-09-19T06:31:38;1.80;;;1.10;;
21000;SDS011;10658;50.920;12.238;2023-09-19T06:35:40;1.13;;;1.02;;
21000;SDS011;10658;50.920;12.238;2023-09-19T06:39:42;2.00;;;1.20;;
21000;SDS011;10658;50.920;12.238;2023-09-19T06:43:43;2.65;;;1.30;;
21000;SDS011;10658;50.920;12.238;2023-09-19T06:47:45;1.33;;;0.90;;
21000;SDS011;10658;50.920;12.238;2023-09-19T06:51:50;3.85;;;1.10;;
21000;SDS011;10658;50.920;12.238;2023-09-19T06:55:55;2.00;;;1.20;;
21000;SDS011;10658;50.920;12.238;2023-09-19T06:59:56;2.53;;;1.17;;
21000;SDS011;10658;50.920;12.238;2023-09-19T07:03:57;2.67;;;1.38;;
21000;SDS011;10658;50.920;12.238;2023-09-19T07:07:59;3.13;;;1.10;;
21000;SDS011;10658;50.920;12.238;2023-09-19T07:12:04;1.60;;;1.20;;
21000;SDS011;10658;50.920;12.238;2023-09-19T07:16:05;1.42;;;1.20;;
21000;SDS011;10658;50.920;12.238;2023-09-19T07:20:09;2.70;;;1.30;;
21000;SDS011;10658;50.920;12.238;2023-09-19T07:24:11;2.33;;;1.30;;
21000;SDS011;10658;50.920;12.238;2023-09-19T07:28:14;2.35;;;1.10;;
21000;SDS011;10658;50.920;12.238;2023-09-19T07:32:15;3.05;;;0.95;;
21000;SDS011;10658;50.920;12.238;2023-09-19T07:36:17;1.17;;;0.98;;
21000;SDS011;10658;50.920;12.238;2023-09-19T07:40:19;3.17;;;0.68;;
21000;SDS011;10658;50.920;12.238;2023-09-19T07:44:21;3.03;;;0.80;;
21000;SDS011;10658;50.920;12.238;2023-09-19T07:48:22;1.20;;;0.88;;
21000;SDS011;10658;50.920;12.238;2023-09-19T07:52:24;1.20;;;1.10;;
21000;SDS011;10658;50.920;12.238;2023-09-19T07:56:28;1.65;;;1.02;;
21000;SDS011;10658;50.920;12.238;2023-09-19T08:00:29;2.00;;;1.17;;
21000;SDS011;10658;50.920;12.238;2023-09-19T08:04:30;0.80;;;0.68;;
21000;SDS011;10658;50.920;12.238;2023-09-19T08:08:34;1.15;;;0.85;;
21000;SDS011;10658;50.920;12.238;2023-09-19T08:12:38;2.13;;;0.75;;
21000;SDS011;10658;50.920;12.238;2023-09-19T08:16:46;1.63;;;0.68;;
21000;SDS011;10658;50.920;12.238;2023-09-19T08:20:51;2.13;;;1.02;;
21000;SDS011;10658;50.920;12.238;2023-09-19T08:24:53;3.08;;;0.60;;
21000;SDS011;10658;50.920;12.238;2023-09-19T08:28:56;2.65;;;0.80;;
21000;SDS011;10658;50.920;12.238;2023-09-19T08:32:58;1.90;;;0.75;;
21000;SDS011;10658;50.920;12.238;2023-09-19T08:37:00;1.02;;;0.73;;
21000;SDS011;10658;50.920;12.238;2023-09-19T08:41:05;0.70;;;0.52;;
21000;SDS011;10658;50.920;12.238;2023-09-19T08:45:10;0.90;;;0.60;;
21000;SDS011;10658;50.920;12.238;2023-09-19T08:49:24;1.80;;;0.60;;
21000;SDS011;10658;50.920;12.238;2023-09-19T08:53:51;1.48;;;1.23;;
21000;SDS011;10658;50.920;12.238;2023-09-19T08:58:00;2.67;;;0.90;;
21000;SDS011;10658;50.920;12.238;2023-09-19T09:02:04;2.75;;;0.85;;
21000;SDS011;10658;50.920;12.238;2023-09-19T09:06:13;0.70;;;0.60;;
21000;SDS011;10658;50.920;12.238;2023-09-19T09:10:17;0.95;;;0.80;;
21000;SDS011;10658;50.920;12.238;2023-09-19T09:14:22;3.30;;;0.77;;
21000;SDS011;10658;50.920;12.238;2023-09-19T09:18:24;2.85;;;0.80;;
21000;SDS011;10658;50.920;12.238;2023-09-19T09:22:26;1.10;;;0.80;;
21000;SDS011;10658;50.920;12.238;2023-09-19T09:30:40;0.70;;;0.55;;
21000;SDS011;10658;50.920;12.238;2023-09-19T09:34:42;1.67;;;0.70;;
21000;SDS011;10658;50.920;12.238;2023-09-19T09:38:43;1.67;;;0.82;;
21000;SDS011;10658;50.920;12.238;2023-09-19T09:42:46;0.93;;;0.70;;
21000;SDS011;10658;50.920;12.238;2023-09-19T09:46:48;2.00;;;0.93;;
21000;SDS011;10658;50.920;12.238;2023-09-19T09:50:49;2.08;;;0.77;;
21000;SDS011;10658;50.920;12.238;2023-09-19T09:55:00;2.40;;;1.27;;
21000;SDS011;10658;50.920;12.238;2023-09-19T09:59:05;1.48;;;0.82;;
21000;SDS011;10658;50.920;12.238;2023-09-19T10:03:16;2.08;;;0.60;;
21000;SDS011;10658;50.920;12.238;2023-09-19T10:07:25;1.05;;;0.90;;
21000;SDS011;10658;50.920;12.238;2023-09-19T10:11:38;3.38;;;1.00;;
21000;SDS011;10658;50.920;12.238;2023-09-19T10:15:43;1.10;;;0.63;;
21000;SDS011;10658;50.920;12.238;2023-09-19T10:19:54;3.90;;;0.93;;
21000;SDS011;10658;50.920;12.238;2023-09-19T10:23:59;1.02;;;0.85;;
21000;SDS011;10658;50.920;12.238;2023-09-19T10:28:05;1.02;;;0.43;;
21000;SDS011;10658;50.920;12.238;2023-09-19T10:32:11;1.75;;;0.90;;
21000;SDS011;10658;50.920;12.238;2023-09-19T10:36:19;1.70;;;0.93;;
21000;SDS011;10658;50.920;12.238;2023-09-19T10:40:24;0.95;;;0.70;;
21000;SDS011;10658;50.920;12.238;2023-09-19T10:44:32;3.08;;;1.17;;
21000;SDS011;10658;50.920;12.238;2023-09-19T10:48:33;3.50;;;1.00;;
21000;SDS011;10658;50.920;12.238;2023-09-19T10:52:37;1.75;;;0.80;;
21000;SDS011;10658;50.920;12.238;2023-09-19T10:56:46;2.53;;;1.00;;
21000;SDS011;10658;50.920;12.238;2023-09-19T11:00:51;2.45;;;1.02;;
21000;SDS011;10658;50.920;12.238;2023-09-19T11:05:12;2.45;;;1.00;;
21000;SDS011;10658;50.920;12.238;2023-09-19T11:09:14;1.83;;;0.80;;
21000;SDS011;10658;50.920;12.238;2023-09-19T11:13:28;2.20;;;1.00;;
21000;SDS011;10658;50.920;12.238;2023-09-19T11:17:38;1.40;;;1.00;;
21000;SDS011;10658;50.920;12.238;2023-09-19T11:21:51;1.65;;;1.30;;
21000;SDS011;10658;50.920;12.238;2023-09-19T11:25:55;1.50;;;1.02;;
21000;SDS011;10658;50.920;12.238;2023-09-19T11:30:25;3.15;;;1.02;;
21000;SDS011;10658;50.920;12.238;2023-09-19T11:42:47;1.92;;;1.02;;
21000;SDS011;10658;50.920;12.238;2023-09-19T11:46:54;1.67;;;1.13;;
21000;SDS011;10658;50.920;12.238;2023-09-19T11:50:58;1.50;;;0.85;;
21000;SDS011;10658;50.920;12.238;2023-09-19T11:55:02;1.65;;;0.95;;
21000;SDS011;10658;50.920;12.238;2023-09-19T11:59:05;2.05;;;1.10;;
21000;SDS011;10658;50.920;12.238;2023-09-19T12:03:09;1.75;;;1.33;;
21000;SDS011;10658;50.920;12.238;2023-09-19T12:07:12;1.95;;;1.50;;
21000;SDS011;10658;50.920;12.238;2023-09-19T12:11:17;2.50;;;1.23;;
21000;SDS011;10658;50.920;12.238;2023-09-19T12:15:23;1.98;;;1.10;;
21000;SDS011;10658;50.920;12.238;2023-09-19T12:19:29;3.22;;;1.48;;
21000;SDS011;10658;50.920;12.238;2023-09-19T12:23:30;2.05;;;1.60;;
21000;SDS011;10658;50.920;12.238;2023-09-19T12:27:31;3.78;;;1.33;;
21000;SDS011;10658;50.920;12.238;2023-09-19T12:31:54;2.00;;;1.50;;
21000;SDS011;10658;50.920;12.238;2023-09-19T12:36:00;1.67;;;1.35;;
21000;SDS011;10658;50.920;12.238;2023-09-19T12:40:21;3.58;;;1.65;;
21000;SDS011;10658;50.920;12.238;2023-09-19T12:44:27;2.88;;;1.33;;
21000;SDS011;10658;50.920;12.238;2023-09-19T12:48:29;4.20;;;2.58;;
21000;SDS011;10658;50.920;12.238;2023-09-19T12:52:37;4.40;;;2.05;;
21000;SDS011;10658;50.920;12.238;2023-09-19T12:56:41;3.33;;;1.73;;
21000;SDS011;10658;50.920;12.238;2023-09-19T13:00:45;2.55;;;1.70;;
21000;SDS011;10658;50.920;12.238;2023-09-19T13:04:53;3.10;;;1.52;;
21000;SDS011;10658;50.920;12.238;2023-09-19T13:09:07;4.45;;;1.65;;
21000;SDS011;10658;50.920;12.238;2023-09-19T13:13:22;1.95;;;1.40;;
21000;SDS011;10658;50.920;12.238;2023-09-19T13:17:42;3.17;;;1.75;;
21000;SDS011;10658;50.920;12.238;2023-09-19T13:21:46;2.25;;;1.80;;
21000;SDS011;10658;50.920;12.238;2023-09-19T13:25:49;3.03;;;1.48;;
21000;SDS011;10658;50.920;12.238;2023-09-19T13:29:51;1.75;;;1.50;;
21000;SDS011;10658;50.920;12.238;2023-09-19T13:33:52;2.58;;;1.90;;
21000;SDS011;10658;50.920;12.238;2023-09-19T13:37:53;2.58;;;1.90;;
21000;SDS011;10658;50.920;12.238;2023-09-19T13:41:55;3.65;;;1.80;;
21000;SDS011;10658;50.920;12.238;2023-09-19T13:45:57;3.65;;;1.65;;
21000;SDS011;10658;50.920;12.238;2023-09-19T13:49:58;2.05;;;1.40;;
21000;SDS011;10658;50.920;12.238;2023-09-19T13:54:01;3.03;;;1.98;;
21000;SDS011;10658;50.920;12.238;2023-09-19T13:58:02;4.35;;;1.80;;
21000;SDS011;10658;50.920;12.238;2023-09-19T14:02:06;3.25;;;2.05;;
21000;SDS011;10658;50.920;12.238;2023-09-19T14:06:08;3.45;;;2.30;;
21000;SDS011;10658;50.920;12.238;2023-09-19T14:10:10;4.50;;;1.85;;
21000;SDS011;10658;50.920;12.238;2023-09-19T14:14:12;4.10;;;1.73;;
21000;SDS011;10658;50.920;12.238;2023-09-19T14:18:13;3.60;;;2.05;;
21000;SDS011;10658;50.920;12.238;2023-09-19T14:22:15;5.15;;;2.00;;
21000;SDS011;10658;50.920;12.238;2023-09-19T14:26:16;2.70;;;1.85;;
21000;SDS011;10658;50.920;12.238;2023-09-19T14:30:19;7.10;;;2.17;;
21000;SDS011;10658;50.920;12.238;2023-09-19T14:34:20;3.70;;;1.77;;
21000;SDS011;10658;50.920;12.238;2023-09-19T14:38:22;3.53;;;2.08;;
21000;SDS011;10658;50.920;12.238;2023-09-19T14:42:23;5.47;;;2.00;;
21000;SDS011;10658;50.920;12.238;2023-09-19T14:46:24;5.15;;;2.00;;
21000;SDS011;10658;50.920;12.238;2023-09-19T14:50:25;4.03;;;2.03;;
21000;SDS011;10658;50.920;12.238;2023-09-19T14:54:26;3.80;;;2.20;;
21000;SDS011;10658;50.920;12.238;2023-09-19T14:58:30;4.63;;;1.95;;
21000;SDS011;10658;50.920;12.238;2023-09-19T15:02:32;5.15;;;2.35;;
21000;SDS011;10658;50.920;12.238;2023-09-19T15:06:34;6.30;;;2.25;;
21000;SDS011;10658;50.920;12.238;2023-09-19T15:10:35;4.38;;;2.10;;
21000;SDS011;10658;50.920;12.238;2023-09-19T15:14:37;3.38;;;2.33;;
21000;SDS011;10658;50.920;12.238;2023-09-19T15:18:38;2.13;;;1.90;;
21000;SDS011;10658;50.920;12.238;2023-09-19T15:22:43;3.08;;;2.00;;
21000;SDS011;10658;50.920;12.238;2023-09-19T15:26:44;2.17;;;1.98;;
21000;SDS011;10658;50.920;12.238;2023-09-19T15:30:47;3.17;;;1.77;;
21000;SDS011;10658;50.920;12.238;2023-09-19T15:34:47;5.18;;;2.05;;
21000;SDS011;10658;50.920;12.238;2023-09-19T15:43:06;4.30;;;2.40;;
21000;SDS011;10658;50.920;12.238;2023-09-19T15:47:07;2.92;;;2.15;;
21000;SDS011;10658;50.920;12.238;2023-09-19T15:51:08;4.90;;;2.00;;
21000;SDS011;10658;50.920;12.238;2023-09-19T15:55:12;3.95;;;2.30;;
21000;SDS011;10658;50.920;12.238;2023-09-19T15:59:14;4.28;;;2.28;;
21000;SDS011;10658;50.920;12.238;2023-09-19T16:03:15;3.88;;;2.20;;
21000;SDS011;10658;50.920;12.238;2023-09-19T16:07:18;3.20;;;2.08;;
21000;SDS011;10658;50.920;12.238;2023-09-19T16:11:19;2.92;;;2.10;;
21000;SDS011;10658;50.920;12.238;2023-09-19T16:15:20;5.90;;;2.35;;
21000;SDS011;10658;50.920;12.238;2023-09-19T16:19:21;7.57;;;2.22;;
21000;SDS011;10658;50.920;12.238;2023-09-19T16:23:24;2.90;;;2.38;;
21000;SDS011;10658;50.920;12.238;2023-09-19T16:27:25;4.78;;;2.28;;
21000;SDS011;10658;50.920;12.238;2023-09-19T16:31:26;4.85;;;2.03;;
21000;SDS011;10658;50.920;12.238;2023-09-19T16:35:28;7.15;;;2.00;;
21000;SDS011;10658;50.920;12.238;2023-09-19T16:39:29;4.55;;;1.98;;
21000;SDS011;10658;50.920;12.238;2023-09-19T16:43:31;7.47;;;2.22;;
21000;SDS011;10658;50.920;12.238;2023-09-19T16:47:34;2.83;;;1.60;;
21000;SDS011;10658;50.920;12.238;2023-09-19T16:51:35;5.55;;;2.13;;
21000;SDS011;10658;50.920;12.238;2023-09-19T16:55:38;4.28;;;2.42;;
21000;SDS011;10658;50.920;12.238;2023-09-19T16:59:39;5.63;;;2.10;;
21000;SDS011;10658;50.920;12.238;2023-09-19T17:03:40;5.15;;;1.83;;
21000;SDS011;10658;50.920;12.238;2023-09-19T17:07:42;4.97;;;1.98;;
21000;SDS011;10658;50.920;12.238;2023-09-19T17:11:42;3.83;;;1.83;;
21000;SDS011;10658;50.920;12.238;2023-09-19T17:15:46;3.35;;;1.90;;
21000;SDS011;10658;50.920;12.238;2023-09-19T17:19:48;4.40;;;1.90;;
21000;SDS011;10658;50.920;12.238;2023-09-19T17:23:48;3.78;;;2.03;;
21000;SDS011;10658;50.920;12.238;2023-09-19T17:27:50;3.85;;;1.85;;
21000;SDS011;10658;50.920;12.238;2023-09-19T17:31:51;2.38;;;1.60;;
21000;SDS011;10658;50.920;12.238;2023-09-19T17:35:53;4.78;;;2.15;;
21000;SDS011;10658;50.920;12.238;2023-09-19T17:40:10;3.97;;;1.67;;
21000;SDS011;10658;50.920;12.238;2023-09-19T17:44:12;3.72;;;1.70;;
21000;SDS011;10658;50.920;12.238;2023-09-19T17:48:12;3.40;;;2.05;;
21000;SDS011;10658;50.920;12.238;2023-09-19T17:52:13;4.82;;;2.17;;
21000;SDS011;10658;50.920;12.238;2023-09-19T17:56:15;5.20;;;1.80;;
21000;SDS011;10658;50.920;12.238;2023-09-19T18:00:16;7.15;;;2.28;;
21000;SDS011;10658;50.920;12.238;2023-09-19T18:04:18;2.63;;;1.52;;
21000;SDS011;10658;50.920;12.238;2023-09-19T18:08:19;3.60;;;1.77;;
21000;SDS011;10658;50.920;12.238;2023-09-19T18:12:21;4.35;;;1.85;;
21000;SDS011;10658;50.920;12.238;2023-09-19T18:16:22;3.97;;;2.28;;
21000;SDS011;10658;50.920;12.238;2023-09-19T18:20:27;4.40;;;2.03;;
21000;SDS011;10658;50.920;12.238;2023-09-19T18:24:28;3.88;;;1.88;;
21000;SDS011;10658;50.920;12.238;2023-09-19T18:28:29;4.93;;;1.77;;
21000;SDS011;10658;50.920;12.238;2023-09-19T18:32:30;4.28;;;1.63;;
21000;SDS011;10658;50.920;12.238;2023-09-19T18:36:33;5.70;;;1.92;;
21000;SDS011;10658;50.920;12.238;2023-09-19T18:40:36;6.85;;;2.50;;
21000;SDS011;10658;50.920;12.238;2023-09-19T18:44:42;4.03;;;2.10;;
21000;SDS011;10658;50.920;12.238;2023-09-19T18:48:43;5.45;;;2.30;;
21000;SDS011;10658;50.920;12.238;2023-09-19T18:52:45;3.17;;;2.05;;
21000;SDS011;10658;50.920;12.238;2023-09-19T18:57:08;2.15;;;1.88;;
21000;SDS011;10658;50.920;12.238;2023-09-19T19:01:09;4.30;;;2.28;;
21000;SDS011;10658;50.920;12.238;2023-09-19T19:05:11;4.38;;;1.63;;
21000;SDS011;10658;50.920;12.238;2023-09-19T19:09:13;3.42;;;2.30;;
21000;SDS011;10658;50.920;12.238;2023-09-19T19:13:14;3.47;;;1.52;;
21000;SDS011;10658;50.920;12.238;2023-09-19T19:17:15;1.88;;;1.73;;
21000;SDS011;10658;50.920;12.238;2023-09-19T19:21:16;2.72;;;1.60;;
21000;SDS011;10658;50.920;12.238;2023-09-19T19:25:17;5.57;;;2.05;;
21000;SDS011;10658;50.920;12.238;2023-09-19T19:29:19;3.22;;;2.17;;
21000;SDS011;10658;50.920;12.238;2023-09-19T19:33:20;5.70;;;2.55;;
21000;SDS011;10658;50.920;12.238;2023-09-19T19:37:22;4.32;;;2.10;;
21000;SDS011;10658;50.920;12.238;2023-09-19T19:41:23;2.63;;;1.85;;
21000;SDS011;10658;50.920;12.238;2023-09-19T19:45:23;3.70;;;2.22;;
21000;SDS011;10658;50.920;12.238;2023-09-19T19:49:24;1.83;;;1.48;;
21000;SDS011;10658;50.920;12.238;2023-09-19T19:53:26;6.85;;;2.00;;
21000;SDS011;10658;50.920;12.238;2023-09-19T19:57:27;2.45;;;1.75;;
21000;SDS011;10658;50.920;12.238;2023-09-19T20:01:28;3.90;;;1.60;;
21000;SDS011;10658;50.920;12.238;2023-09-19T20:05:29;4.65;;;1.75;;
21000;SDS011;10658;50.920;12.238;2023-09-19T20:09:30;2.95;;;1.55;;
21000;SDS011;10658;50.920;12.238;2023-09-19T20:13:31;2.83;;;1.90;;
21000;SDS011;10658;50.920;12.238;2023-09-19T20:17:32;2.10;;;1.90;;
21000;SDS011;10658;50.920;12.238;2023-09-19T20:21:32;3.58;;;2.40;;
21000;SDS011;10658;50.920;12.238;2023-09-19T20:25:35;3.63;;;2.17;;
21000;SDS011;10658;50.920;12.238;2023-09-19T20:29:36;5.15;;;2.35;;
21000;SDS011;10658;50.920;12.238;2023-09-19T20:33:39;3.38;;;2.35;;
21000;SDS011;10658;50.920;12.238;2023-09-19T20:37:40;5.05;;;2.22;;
21000;SDS011;10658;50.920;12.238;2023-09-19T20:41:41;4.70;;;1.55;;
21000;SDS011;10658;50.920;12.238;2023-09-19T20:45:42;3.55;;;1.63;;
21000;SDS011;10658;50.920;12.238;2023-09-19T20:49:43;3.67;;;1.85;;
21000;SDS011;10658;50.920;12.238;2023-09-19T20:53:44;3.33;;;2.42;;
21000;SDS011;10658;50.920;12.238;2023-09-19T20:57:45;6.15;;;2.17;;
21000;SDS011;10658;50.920;12.238;2023-09-19T21:01:46;3.55;;;1.80;;
21000;SDS011;10658;50.920;12.238;2023-09-19T21:05:47;2.60;;;2.10;;
21000;SDS011;10658;50.920;12.238;2023-09-19T21:09:48;2.88;;;1.80;;
21000;SDS011;10658;50.920;12.238;2023-09-19T21:13:49;5.65;;;1.77;;
21000;SDS011;10658;50.920;12.238;2023-09-19T21:17:51;1.70;;;1.50;;
21000;SDS011;10658;50.920;12.238;2023-09-19T21:21:52;5.13;;;1.77;;
21000;SDS011;10658;50.920;12.238;2023-09-19T21:25:54;3.90;;;1.80;;
21000;SDS011;10658;50.920;12.238;2023-09-19T21:29:54;2.42;;;1.50;;
21000;SDS011;10658;50.920;12.238;2023-09-19T21:33:55;3.65;;;1.80;;
21000;SDS011;10658;50.920;12.238;2023-09-19T21:37:56;4.03;;;1.95;;
21000;SDS011;10658;50.920;12.238;2023-09-19T21:41:57;2.28;;;1.60;;
21000;SDS011;10658;50.920;12.238;2023-09-19T21:45:58;2.70;;;1.83;;
21000;SDS011;10658;50.920;12.238;2023-09-19T21:49:59;2.00;;;1.48;;
21000;SDS011;10658;50.920;12.238;2023-09-19T21:53:59;2.53;;;1.77;;
21000;SDS011;10658;50.920;12.238;2023-09-19T21:58:03;2.42;;;1.38;;
21000;SDS011;10658;50.920;12.238;2023-09-19T22:02:04;2.63;;;1.60;;
21000;SDS011;10658;50.920;12.238;2023-09-19T22:06:08;2.45;;;1.45;;
21000;SDS011;10658;50.920;12.238;2023-09-19T22:10:09;1.90;;;1.38;;
21000;SDS011;10658;50.920;12.238;2023-09-19T22:14:10;1.30;;;1.15;;
21000;SDS011;10658;50.920;12.238;2023-09-19T22:18:11;3.40;;;1.48;;
21000;SDS011;10658;50.920;12.238;2023-09-19T22:22:12;4.50;;;1.60;;
21000;SDS011;10658;50.920;12.238;2023-09-19T22:26:14;3.08;;;1.33;;
21000;SDS011;10658;50.920;12.238;2023-09-19T22:30:20;3.15;;;1.42;;
21000;SDS011;10658;50.920;12.238;2023-09-19T22:34:21;2.20;;;1.30;;
21000;SDS011;10658;50.920;12.238;2023-09-19T22:38:22;3.88;;;1.30;;
21000;SDS011;10658;50.920;12.238;2023-09-19T22:42:23;2.75;;;2.03;;
21000;SDS011;10658;50.920;12.238;2023-09-19T22:46:25;3.75;;;1.48;;
21000;SDS011;10658;50.920;12.238;2023-09-19T22:50:28;2.05;;;1.33;;
21000;SDS011;10658;50.920;12.238;2023-09-19T22:54:30;2.08;;;1.55;;
21000;SDS011;10658;50.920;12.238;2023-09-19T22:58:39;1.63;;;1.30;;
21000;SDS011;10658;50.920;12.238;2023-09-19T23:02:40;4.07;;;1.35;;
21000;SDS011;10658;50.920;12.238;2023-09-19T23:06:43;2.05;;;1.30;;
21000;SDS011;10658;50.920;12.238;2023-09-19T23:10:48;1.85;;;1.33;;
21000;SDS011;10658;50.920;12.238;2023-09-19T23:14:51;2.72;;;1.42;;
21000;SDS011;10658;50.920;12.238;2023-09-19T23:18:53;3.72;;;1.45;;
21000;SDS011;10658;50.920;12.238;2023-09-19T23:22:56;3.75;;;1.48;;
21000;SDS011;10658;50.920;12.238;2023-09-19T23:26:58;3.70;;;1.30;;
21000;SDS011;10658;50.920;12.238;2023-09-19T23:30:59;3.28;;;1.50;;
21000;SDS011;10658;50.920;12.238;2023-09-19T23:35:00;2.92;;;1.30;;
21000;SDS011;10658;50.920;12.238;2023-09-19T23:39:01;1.88;;;1.25;;
21000;SDS011;10658;50.920;12.238;2023-09-19T23:43:04;2.70;;;1.50;;
21000;SDS011;10658;50.920;12.238;2023-09-19T23:47:11;2.45;;;1.50;;
21000;SDS011;10658;50.920;12.238;2023-09-19T23:51:13;4.30;;;1.45;;
21000;SDS011;10658;50.920;12.238;2023-09-19T23:55:19;3.53;;;1.38;;
21000;SDS011;10658;50.920;12.238;2023-09-19T23:59:25;3.00;;;1.38;;
